Time;durP1;ratioP1;P1;durP2;ratioP2;P2;SDS_P1;SDS_P2;PMS_P1;PMS_P2;Temp;Humidity;BMP_temperature;BMP_pressure;BME280_temperature;BME280_humidity;BME280_pressure;Samples;Min_cycle;Max_cycle;Signal;HPM_P1;HPM_P2
2022/04/25 00:01:47;;;;;;;0.10;0.10;;;;;;;;;;5020449;28;20623;-68
2022/04/25 00:04:15;;;;;;;0.10;0.10;;;;;;;;;;5022260;28;20740;-68
2022/04/25 00:06:42;;;;;;;0.10;0.10;;;;;;;;;;5023436;28;20660;-68
2022/04/25 00:09:09;;;;;;;0.10;0.10;;;;;;;;;;5023768;28;20696;-68
2022/04/25 00:11:37;;;;;;;0.10;0.10;;;;;;;;;;5019726;28;20709;-69
2022/04/25 00:14:06;;;;;;;0.10;0.10;;;;;;;;;;5032478;28;20661;-68
2022/04/25 00:16:33;;;;;;;0.10;0.10;;;;;;;;;;5018966;28;20623;-68
2022/04/25 00:19:02;;;;;;;0.10;0.10;;;;;;;;;;5021615;28;20622;-68
2022/04/25 00:21:30;;;;;;;0.10;0.10;;;;;;;;;;5027567;28;20626;-68
2022/04/25 00:23:57;;;;;;;0.10;0.10;;;;;;;;;;5020642;28;20658;-69
2022/04/25 00:26:25;;;;;;;0.10;0.10;;;;;;;;;;5025168;28;20718;-68
2022/04/25 00:28:52;;;;;;;0.10;0.10;;;;;;;;;;5025507;28;20655;-68
2022/04/25 00:31:19;;;;;;;0.10;0.10;;;;;;;;;;5022768;28;20602;-68
2022/04/25 00:33:47;;;;;;;0.10;0.10;;;;;;;;;;5023410;28;21298;-69
2022/04/25 00:36:15;;;;;;;0.10;0.10;;;;;;;;;;5026060;28;20626;-68
2022/04/25 00:38:43;;;;;;;0.10;0.10;;;;;;;;;;5034369;28;20679;-69
2022/04/25 00:41:10;;;;;;;0.10;0.10;;;;;;;;;;5017801;28;20658;-68
2022/04/25 00:43:38;;;;;;;0.10;0.10;;;;;;;;;;5023768;28;20776;-68
2022/04/25 00:46:05;;;;;;;0.10;0.10;;;;;;;;;;5024425;28;20614;-68
2022/04/25 00:48:33;;;;;;;0.10;0.10;;;;;;;;;;5023343;28;21087;-69
2022/04/25 00:51:00;;;;;;;0.10;0.10;;;;;;;;;;5022831;28;20627;-68
2022/04/25 00:53:29;;;;;;;0.10;0.10;;;;;;;;;;5024694;28;20674;-69
2022/04/25 00:55:56;;;;;;;0.10;0.10;;;;;;;;;;5023798;28;20626;-68
2022/04/25 00:58:23;;;;;;;0.10;0.10;;;;;;;;;;5018529;28;20627;-68
2022/04/25 01:00:51;;;;;;;0.13;0.13;;;;;;;;;;5027052;28;20615;-68
2022/04/25 01:03:18;;;;;;;0.10;0.10;;;;;;;;;;5042646;28;20633;-69
2022/04/25 01:05:46;;;;;;;0.10;0.10;;;;;;;;;;5022376;28;20633;-68
2022/04/25 01:08:13;;;;;;;0.10;0.10;;;;;;;;;;5014089;28;20709;-68
2022/04/25 01:10:42;;;;;;;0.10;0.10;;;;;;;;;;5024742;28;20667;-70
2022/04/25 01:13:09;;;;;;;0.10;0.10;;;;;;;;;;5027987;28;20657;-68
2022/04/25 01:15:37;;;;;;;0.10;0.10;;;;;;;;;;5028030;28;20628;-68
2022/04/25 01:18:04;;;;;;;0.10;0.10;;;;;;;;;;5014265;28;20619;-68
2022/04/25 01:20:31;;;;;;;0.10;0.10;;;;;;;;;;5022246;28;20637;-68
2022/04/25 01:27:15;;;;;;;0.10;0.10;;;;;;;;;;5020061;28;20630;-68
2022/04/25 01:28:36;;;;;;;0.10;0.10;;;;;;;;;;5024172;28;20662;-68
2022/04/25 01:31:03;;;;;;;0.10;0.10;;;;;;;;;;5027151;28;20651;-69
2022/04/25 01:33:30;;;;;;;0.20;0.20;;;;;;;;;;5029535;28;20711;-68
2022/04/25 01:35:58;;;;;;;0.10;0.10;;;;;;;;;;5027960;28;20682;-69
2022/04/25 01:38:25;;;;;;;0.10;0.10;;;;;;;;;;5026499;28;20699;-69
2022/04/25 01:40:54;;;;;;;0.10;0.10;;;;;;;;;;5025001;28;20613;-69
2022/04/25 01:43:21;;;;;;;0.10;0.10;;;;;;;;;;5027325;28;20666;-69
2022/04/25 01:45:48;;;;;;;0.10;0.10;;;;;;;;;;5032255;28;20695;-69
2022/04/25 01:48:15;;;;;;;0.10;0.10;;;;;;;;;;5025582;28;20662;-69
2022/04/25 01:50:43;;;;;;;0.10;0.10;;;;;;;;;;5047768;28;20626;-69
2022/04/25 01:53:11;;;;;;;0.10;0.10;;;;;;;;;;5031456;28;20610;-69
2022/04/25 01:55:38;;;;;;;0.20;0.20;;;;;;;;;;5031815;28;20708;-69
2022/04/25 01:58:06;;;;;;;0.10;0.10;;;;;;;;;;5030671;28;20626;-69
2022/04/25 02:00:34;;;;;;;0.10;0.10;;;;;;;;;;5032304;28;20642;-69
2022/04/25 02:03:01;;;;;;;0.20;0.20;;;;;;;;;;5033491;28;20618;-69
2022/04/25 02:05:29;;;;;;;0.10;0.10;;;;;;;;;;5023723;28;20623;-69
2022/04/25 02:07:56;;;;;;;0.10;0.10;;;;;;;;;;5025689;28;20611;-70
2022/04/25 02:10:23;;;;;;;0.10;0.10;;;;;;;;;;5023757;28;20614;-69
2022/04/25 02:12:51;;;;;;;0.10;0.10;;;;;;;;;;5030249;28;20635;-69
2022/04/25 02:15:19;;;;;;;0.10;0.10;;;;;;;;;;5046449;28;20708;-69
2022/04/25 02:17:47;;;;;;;0.10;0.10;;;;;;;;;;5028612;28;20737;-69
2022/04/25 02:20:14;;;;;;;0.10;0.10;;;;;;;;;;5023325;28;20725;-69
2022/04/25 02:22:42;;;;;;;0.10;0.10;;;;;;;;;;5030435;28;20622;-69
2022/04/25 02:25:11;;;;;;;0.10;0.10;;;;;;;;;;5029019;28;20650;-69
2022/04/25 02:27:38;;;;;;;0.10;0.10;;;;;;;;;;5026203;28;20640;-70
2022/04/25 02:30:06;;;;;;;0.10;0.10;;;;;;;;;;5029548;28;20686;-69
2022/04/25 02:32:35;;;;;;;0.10;0.10;;;;;;;;;;5029984;28;20646;-69
2022/04/25 02:35:02;;;;;;;0.10;0.10;;;;;;;;;;5031408;28;20659;-69
2022/04/25 02:37:30;;;;;;;0.10;0.10;;;;;;;;;;5025132;28;20715;-69
2022/04/25 02:39:58;;;;;;;0.10;0.10;;;;;;;;;;5033085;28;20697;-69
2022/04/25 02:42:26;;;;;;;0.10;0.10;;;;;;;;;;5020604;28;20622;-69
2022/04/25 02:44:53;;;;;;;0.20;0.20;;;;;;;;;;5019701;28;20653;-69
2022/04/25 02:47:20;;;;;;;0.10;0.10;;;;;;;;;;5021840;28;20611;-69
2022/04/25 02:49:49;;;;;;;0.10;0.10;;;;;;;;;;5019460;28;20685;-70
2022/04/25 02:52:16;;;;;;;0.10;0.10;;;;;;;;;;5016957;28;20618;-70
2022/04/25 02:54:43;;;;;;;0.10;0.10;;;;;;;;;;5015720;28;20718;-70
2022/04/25 02:57:11;;;;;;;0.10;0.10;;;;;;;;;;5012339;28;20622;-71
2022/04/25 02:59:38;;;;;;;0.10;0.10;;;;;;;;;;5031348;28;20618;-70
2022/04/25 03:02:05;;;;;;;0.10;0.10;;;;;;;;;;5020848;28;20622;-70
2022/04/25 03:04:34;;;;;;;0.10;0.10;;;;;;;;;;5025206;28;20657;-71
2022/04/25 03:07:02;;;;;;;0.10;0.10;;;;;;;;;;5021739;28;20681;-69
2022/04/25 03:09:30;;;;;;;0.10;0.10;;;;;;;;;;5019688;28;20689;-71
2022/04/25 03:11:57;;;;;;;0.10;0.10;;;;;;;;;;5022107;28;20614;-70
2022/04/25 03:14:26;;;;;;;0.10;0.10;;;;;;;;;;5016786;28;20685;-71
2022/04/25 03:16:53;;;;;;;0.20;0.20;;;;;;;;;;5030149;28;20627;-71
2022/04/25 03:19:20;;;;;;;0.10;0.10;;;;;;;;;;5033275;28;20621;-70
2022/04/25 03:21:48;;;;;;;0.10;0.10;;;;;;;;;;5029633;28;20650;-70
2022/04/25 03:24:16;;;;;;;0.10;0.10;;;;;;;;;;5036207;28;20668;-69
2022/04/25 03:26:44;;;;;;;0.10;0.10;;;;;;;;;;5021137;28;20661;-70
2022/04/25 03:29:13;;;;;;;0.10;0.10;;;;;;;;;;5027500;28;20768;-71
2022/04/25 03:31:40;;;;;;;0.10;0.10;;;;;;;;;;5020378;28;20635;-71
2022/04/25 03:34:08;;;;;;;0.20;0.20;;;;;;;;;;5020338;28;20771;-71
2022/04/25 03:36:35;;;;;;;0.10;0.10;;;;;;;;;;5026651;28;20920;-71
2022/04/25 03:39:02;;;;;;;0.10;0.10;;;;;;;;;;5021124;28;20607;-70
2022/04/25 03:41:31;;;;;;;0.10;0.10;;;;;;;;;;5041242;28;20681;-70
2022/04/25 03:43:59;;;;;;;0.20;0.20;;;;;;;;;;5021459;28;20811;-70
2022/04/25 03:46:27;;;;;;;0.20;0.20;;;;;;;;;;5024367;28;20714;-71
2022/04/25 03:48:55;;;;;;;0.10;0.10;;;;;;;;;;5018067;28;20665;-70
2022/04/25 03:51:22;;;;;;;0.10;0.10;;;;;;;;;;5022154;28;20611;-70
2022/04/25 03:53:50;;;;;;;0.10;0.10;;;;;;;;;;5024025;28;20659;-71
2022/04/25 03:59:03;;;;;;;0.10;0.10;;;;;;;;;;5027675;28;20680;-71
2022/04/25 04:01:32;;;;;;;0.20;0.20;;;;;;;;;;5026250;28;20602;-70
2022/04/25 04:04:04;;;;;;;0.10;0.10;;;;;;;;;;5017291;28;20749;-70
2022/04/25 04:06:32;;;;;;;0.17;0.17;;;;;;;;;;5037868;28;20677;-71
2022/04/25 04:08:59;;;;;;;0.10;0.10;;;;;;;;;;5018102;28;20650;-70
2022/04/25 04:11:46;;;;;;;0.20;0.20;;;;;;;;;;5016523;28;20615;-70
2022/04/25 04:14:15;;;;;;;0.10;0.10;;;;;;;;;;5015845;28;20727;-70
2022/04/25 04:16:43;;;;;;;0.10;0.10;;;;;;;;;;5021425;28;20670;-69
2022/04/25 04:19:10;;;;;;;0.10;0.10;;;;;;;;;;5015413;28;20611;-71
2022/04/25 04:21:38;;;;;;;0.10;0.10;;;;;;;;;;5032865;28;20718;-68
2022/04/25 04:24:06;;;;;;;0.20;0.20;;;;;;;;;;5022095;28;20678;-70
2022/04/25 04:26:33;;;;;;;0.17;0.17;;;;;;;;;;5020475;28;20627;-69
2022/04/25 04:29:01;;;;;;;0.10;0.10;;;;;;;;;;5014007;28;20659;-71
2022/04/25 04:31:29;;;;;;;0.17;0.17;;;;;;;;;;5027439;28;20629;-70
2022/04/25 04:33:57;;;;;;;0.10;0.10;;;;;;;;;;5026963;28;20651;-70
2022/04/25 04:36:26;;;;;;;0.10;0.10;;;;;;;;;;5016719;28;20615;-70
2022/04/25 04:38:56;;;;;;;0.10;0.10;;;;;;;;;;5019421;28;20697;-72
2022/04/25 04:41:23;;;;;;;0.10;0.10;;;;;;;;;;5016782;28;21297;-70
2022/04/25 04:43:50;;;;;;;0.10;0.10;;;;;;;;;;5016220;28;20694;-70
2022/04/25 04:46:18;;;;;;;0.10;0.10;;;;;;;;;;5025204;28;20649;-69
2022/04/25 04:48:47;;;;;;;0.10;0.10;;;;;;;;;;5019935;28;20634;-68
2022/04/25 04:51:20;;;;;;;0.10;0.10;;;;;;;;;;5017397;28;20668;-76
2022/04/25 04:53:48;;;;;;;0.10;0.10;;;;;;;;;;5010841;28;20686;-75
2022/04/25 04:56:17;;;;;;;0.10;0.10;;;;;;;;;;5024448;28;20618;-75
2022/04/25 04:58:45;;;;;;;0.10;0.10;;;;;;;;;;5019788;28;20661;-73
2022/04/25 05:01:12;;;;;;;0.10;0.10;;;;;;;;;;5017678;28;20701;-69
2022/04/25 05:03:41;;;;;;;0.10;0.10;;;;;;;;;;5021370;28;20718;-71
2022/04/25 05:06:10;;;;;;;0.10;0.10;;;;;;;;;;5020099;28;20750;-71
2022/04/25 05:08:37;;;;;;;0.20;0.20;;;;;;;;;;5018769;28;20713;-71
2022/04/25 05:11:05;;;;;;;0.10;0.10;;;;;;;;;;5022853;28;20622;-70
2022/04/25 05:13:32;;;;;;;0.10;0.10;;;;;;;;;;5022810;28;20685;-69
2022/04/25 05:15:59;;;;;;;0.10;0.10;;;;;;;;;;5022869;28;20653;-70
2022/04/25 05:18:27;;;;;;;0.20;0.20;;;;;;;;;;5019582;28;20631;-70
2022/04/25 05:20:54;;;;;;;0.10;0.10;;;;;;;;;;5028596;28;20672;-70
2022/04/25 05:23:23;;;;;;;0.10;0.10;;;;;;;;;;5019218;28;20707;-70
2022/04/25 05:25:50;;;;;;;0.10;0.10;;;;;;;;;;5029238;28;20629;-69
2022/04/25 05:28:17;;;;;;;0.10;0.10;;;;;;;;;;5026565;28;20613;-68
2022/04/25 05:30:46;;;;;;;0.10;0.10;;;;;;;;;;5024389;28;21080;-68
2022/04/25 05:33:14;;;;;;;0.10;0.10;;;;;;;;;;5029667;28;20614;-70
2022/04/25 05:35:41;;;;;;;0.10;0.10;;;;;;;;;;5014853;28;20640;-70
2022/04/25 05:38:10;;;;;;;0.10;0.10;;;;;;;;;;5022998;28;20622;-70
2022/04/25 05:40:39;;;;;;;0.20;0.20;;;;;;;;;;5022884;28;20611;-70
2022/04/25 05:43:07;;;;;;;0.10;0.10;;;;;;;;;;5024234;28;20658;-70
2022/04/25 05:45:35;;;;;;;0.10;0.10;;;;;;;;;;5022764;28;20720;-69
2022/04/25 05:51:58;;;;;;;0.10;0.10;;;;;;;;;;5020642;28;21369;-70
2022/04/25 05:53:35;;;;;;;0.10;0.10;;;;;;;;;;5018739;28;20641;-70
2022/04/25 05:56:03;;;;;;;0.10;0.10;;;;;;;;;;5026792;28;20650;-69
2022/04/25 05:58:31;;;;;;;0.10;0.10;;;;;;;;;;5021372;28;20622;-70
2022/04/25 06:00:58;;;;;;;0.10;0.10;;;;;;;;;;5028533;28;20649;-69
2022/04/25 06:03:26;;;;;;;0.10;0.10;;;;;;;;;;5028614;28;20658;-70
2022/04/25 06:05:54;;;;;;;0.10;0.10;;;;;;;;;;5022079;28;20653;-70
2022/04/25 06:08:21;;;;;;;0.10;0.10;;;;;;;;;;5019595;28;20624;-70
2022/04/25 06:10:49;;;;;;;0.10;0.10;;;;;;;;;;5033845;28;20684;-69
2022/04/25 06:13:18;;;;;;;0.10;0.10;;;;;;;;;;5025024;28;20606;-70
2022/04/25 06:15:45;;;;;;;0.10;0.10;;;;;;;;;;5018672;28;21199;-70
2022/04/25 06:18:13;;;;;;;0.10;0.10;;;;;;;;;;5021755;28;20669;-70
2022/04/25 06:20:40;;;;;;;0.10;0.10;;;;;;;;;;5028417;28;20705;-70
2022/04/25 06:23:07;;;;;;;0.10;0.10;;;;;;;;;;5020440;28;20664;-70
2022/04/25 06:25:36;;;;;;;0.10;0.10;;;;;;;;;;5021826;28;20693;-69
2022/04/25 06:28:05;;;;;;;0.10;0.10;;;;;;;;;;5022904;28;20635;-70
2022/04/25 06:30:33;;;;;;;0.20;0.20;;;;;;;;;;5022295;28;20755;-69
2022/04/25 06:33:01;;;;;;;0.10;0.10;;;;;;;;;;5028988;28;20650;-69
2022/04/25 06:35:29;;;;;;;0.13;0.13;;;;;;;;;;5025831;28;20615;-70
2022/04/25 06:37:56;;;;;;;0.10;0.10;;;;;;;;;;5027530;28;20648;-70
2022/04/25 06:40:24;;;;;;;0.10;0.10;;;;;;;;;;5032201;28;20611;-70
2022/04/25 06:42:55;;;;;;;0.10;0.10;;;;;;;;;;5030189;28;20602;-70
2022/04/25 06:45:23;;;;;;;0.10;0.10;;;;;;;;;;5026854;28;20754;-69
2022/04/25 06:47:53;;;;;;;0.10;0.10;;;;;;;;;;5022345;28;20650;-70
2022/04/25 06:50:20;;;;;;;0.10;0.10;;;;;;;;;;5026960;28;20654;-69
2022/04/25 06:52:47;;;;;;;0.10;0.10;;;;;;;;;;5026483;28;20693;-70
2022/04/25 06:55:15;;;;;;;0.10;0.10;;;;;;;;;;5029338;28;20665;-70
2022/04/25 06:57:43;;;;;;;0.10;0.10;;;;;;;;;;5023985;28;20642;-69
2022/04/25 07:00:11;;;;;;;0.10;0.10;;;;;;;;;;5030079;28;20630;-68
2022/04/25 07:02:38;;;;;;;0.13;0.13;;;;;;;;;;5030444;28;20621;-69
2022/04/25 07:05:08;;;;;;;0.10;0.10;;;;;;;;;;5027939;28;20650;-69
2022/04/25 07:07:35;;;;;;;0.10;0.10;;;;;;;;;;5025166;28;20622;-69
2022/04/25 07:10:02;;;;;;;0.10;0.10;;;;;;;;;;5033057;28;20657;-69
2022/04/25 07:12:30;;;;;;;0.10;0.10;;;;;;;;;;5022037;28;20661;-69
2022/04/25 07:14:58;;;;;;;0.20;0.20;;;;;;;;;;5023299;28;20690;-69
2022/04/25 07:17:25;;;;;;;0.10;0.10;;;;;;;;;;5026524;28;20638;-69
2022/04/25 07:19:52;;;;;;;0.10;0.10;;;;;;;;;;5027713;28;20720;-69
2022/04/25 07:30:42;;;;;;;0.20;0.20;;;;;;;;;;5028827;28;20655;-75
2022/04/25 07:33:09;;;;;;;0.20;0.20;;;;;;;;;;5028577;28;20721;-75
2022/04/25 07:35:39;;;;;;;0.20;0.20;;;;;;;;;;5049001;28;20675;-75
2022/04/25 07:38:09;;;;;;;0.10;0.10;;;;;;;;;;5047966;28;20704;-75
2022/04/25 07:40:37;;;;;;;0.10;0.10;;;;;;;;;;5053584;28;20640;-77
2022/04/25 07:43:04;;;;;;;0.10;0.10;;;;;;;;;;5041126;28;20672;-75
2022/04/25 07:45:32;;;;;;;0.10;0.10;;;;;;;;;;5040264;22;20679;-70
2022/04/25 07:47:59;;;;;;;0.10;0.10;;;;;;;;;;5005760;28;20635;-70
2022/04/25 07:50:27;;;;;;;0.10;0.10;;;;;;;;;;5012192;28;20656;-70
2022/04/25 07:52:55;;;;;;;0.10;0.10;;;;;;;;;;5015862;28;20631;-71
2022/04/25 07:55:23;;;;;;;0.10;0.10;;;;;;;;;;5012361;28;20659;-70
2022/04/25 07:57:51;;;;;;;0.10;0.10;;;;;;;;;;5007822;28;20635;-70
2022/04/25 08:00:19;;;;;;;0.10;0.10;;;;;;;;;;5012031;28;20627;-70
2022/04/25 08:02:46;;;;;;;0.10;0.10;;;;;;;;;;5014785;28;20607;-69
2022/04/25 08:05:13;;;;;;;0.10;0.10;;;;;;;;;;5009710;28;20622;-69
2022/04/25 08:07:41;;;;;;;0.10;0.10;;;;;;;;;;5009244;28;20698;-70
2022/04/25 08:10:08;;;;;;;0.10;0.10;;;;;;;;;;5014509;28;20679;-70
2022/04/25 08:18:07;;;;;;;0.10;0.10;;;;;;;;;;5008061;28;20677;-69
2022/04/25 08:20:36;;;;;;;0.10;0.10;;;;;;;;;;5015992;28;20654;-69
2022/04/25 08:23:05;;;;;;;0.10;0.10;;;;;;;;;;5007767;28;20643;-70
2022/04/25 08:25:32;;;;;;;0.10;0.10;;;;;;;;;;5011149;28;20757;-69
2022/04/25 08:28:01;;;;;;;0.10;0.10;;;;;;;;;;5009740;28;20686;-70
2022/04/25 08:30:28;;;;;;;0.10;0.10;;;;;;;;;;4999692;28;20628;-70
2022/04/25 08:32:56;;;;;;;0.10;0.10;;;;;;;;;;5012064;28;21196;-69
2022/04/25 08:35:23;;;;;;;0.10;0.10;;;;;;;;;;5011621;28;20678;-70
2022/04/25 08:37:50;;;;;;;0.10;0.10;;;;;;;;;;5006841;28;20627;-70
2022/04/25 08:40:18;;;;;;;0.17;0.17;;;;;;;;;;5008711;28;20657;-70
2022/04/25 08:42:45;;;;;;;0.10;0.10;;;;;;;;;;5008291;28;20709;-70
2022/04/25 08:45:14;;;;;;;0.10;0.10;;;;;;;;;;5008675;28;20650;-68
2022/04/25 08:47:47;;;;;;;0.20;0.20;;;;;;;;;;5011042;28;20596;-69
2022/04/25 08:50:15;;;;;;;0.10;0.10;;;;;;;;;;5008188;28;21029;-71
2022/04/25 08:52:43;;;;;;;0.10;0.10;;;;;;;;;;5011365;28;20722;-70
2022/04/25 08:55:10;;;;;;;0.10;0.10;;;;;;;;;;5008599;28;20646;-71
2022/04/25 08:57:38;;;;;;;0.10;0.10;;;;;;;;;;5007918;28;20718;-71
2022/04/25 09:00:06;;;;;;;0.10;0.10;;;;;;;;;;5012840;28;20643;-70
2022/04/25 09:02:36;;;;;;;0.10;0.10;;;;;;;;;;5007641;28;20651;-70
2022/04/25 09:05:04;;;;;;;0.10;0.10;;;;;;;;;;5006342;28;21179;-70
2022/04/25 09:07:31;;;;;;;0.10;0.10;;;;;;;;;;5015340;28;20655;-70
2022/04/25 09:09:59;;;;;;;0.10;0.10;;;;;;;;;;5004129;28;20628;-70
2022/04/25 09:12:26;;;;;;;0.10;0.10;;;;;;;;;;5007651;28;20665;-70
2022/04/25 09:14:53;;;;;;;0.10;0.10;;;;;;;;;;5008135;28;20697;-68
2022/04/25 09:17:21;;;;;;;0.10;0.10;;;;;;;;;;5008866;28;20652;-70
2022/04/25 09:19:49;;;;;;;0.10;0.10;;;;;;;;;;5010762;28;20641;-70
2022/04/25 09:22:30;;;;;;;0.10;0.10;;;;;;;;;;5007996;28;20665;-70
2022/04/25 09:25:04;;;;;;;0.10;0.10;;;;;;;;;;5005463;28;20623;-69
2022/04/25 09:27:32;;;;;;;0.10;0.10;;;;;;;;;;5009709;28;20647;-70
2022/04/25 09:30:13;;;;;;;0.10;0.10;;;;;;;;;;5013179;28;20706;-71
2022/04/25 09:32:41;;;;;;;0.10;0.10;;;;;;;;;;5002249;28;21059;-70
2022/04/25 09:35:30;;;;;;;0.10;0.10;;;;;;;;;;5010651;28;20642;-70
2022/04/25 09:38:00;;;;;;;0.10;0.10;;;;;;;;;;5008161;28;20682;-71
2022/04/25 09:40:30;;;;;;;0.10;0.10;;;;;;;;;;5029082;28;20682;-69
2022/04/25 09:43:08;;;;;;;0.10;0.10;;;;;;;;;;5010634;28;20768;-69
2022/04/25 09:45:40;;;;;;;0.10;0.10;;;;;;;;;;5004751;28;20686;-69
2022/04/25 09:48:11;;;;;;;0.10;0.10;;;;;;;;;;4993168;28;20644;-69
2022/04/25 09:50:40;;;;;;;0.10;0.10;;;;;;;;;;4999640;28;21226;-69
2022/04/25 09:53:08;;;;;;;0.10;0.10;;;;;;;;;;5004316;28;20627;-70
2022/04/25 09:55:37;;;;;;;0.10;0.10;;;;;;;;;;5009747;28;20650;-69
2022/04/25 09:58:18;;;;;;;0.10;0.10;;;;;;;;;;5007354;28;20662;-69
2022/04/25 10:00:46;;;;;;;0.10;0.10;;;;;;;;;;5005952;28;20731;-69
2022/04/25 10:03:15;;;;;;;0.10;0.10;;;;;;;;;;5010053;28;20603;-69
2022/04/25 10:05:45;;;;;;;0.10;0.10;;;;;;;;;;5015968;28;20665;-70
2022/04/25 10:08:14;;;;;;;0.10;0.10;;;;;;;;;;5009118;28;20624;-70
2022/04/25 10:10:46;;;;;;;0.10;0.10;;;;;;;;;;5017175;28;20621;-70
2022/04/25 10:13:14;;;;;;;0.10;0.10;;;;;;;;;;5013380;28;20697;-69
2022/04/25 10:15:42;;;;;;;0.10;0.10;;;;;;;;;;5013365;28;20670;-70
2022/04/25 10:18:10;;;;;;;0.10;0.10;;;;;;;;;;5013001;28;20627;-69
2022/04/25 10:20:38;;;;;;;0.10;0.10;;;;;;;;;;5010496;28;20659;-69
2022/04/25 10:23:10;;;;;;;0.10;0.10;;;;;;;;;;5012291;28;20197;-72
2022/04/25 10:25:38;;;;;;;0.10;0.10;;;;;;;;;;5011004;28;20658;-70
2022/04/25 10:28:07;;;;;;;0.10;0.10;;;;;;;;;;5015540;28;20614;-70
2022/04/25 10:30:35;;;;;;;0.10;0.10;;;;;;;;;;5004122;28;20205;-69
2022/04/25 10:33:15;;;;;;;0.10;0.10;;;;;;;;;;5015228;28;20197;-70
2022/04/25 10:35:42;;;;;;;0.10;0.10;;;;;;;;;;5011360;28;20226;-70
2022/04/25 10:38:47;;;;;;;0.10;0.10;;;;;;;;;;5015958;28;20686;-70
2022/04/25 10:44:26;;;;;;;0.10;0.10;;;;;;;;;;5010439;28;20227;-70
2022/04/25 10:47:12;;;;;;;0.10;0.10;;;;;;;;;;5011566;28;20290;-70
2022/04/25 10:49:42;;;;;;;0.10;0.10;;;;;;;;;;5017334;28;20200;-70
2022/04/25 10:52:24;;;;;;;0.10;0.10;;;;;;;;;;5005796;28;20203;-69
2022/04/25 10:54:52;;;;;;;0.10;0.10;;;;;;;;;;5010986;28;20747;-70
2022/04/25 10:57:21;;;;;;;0.10;0.10;;;;;;;;;;5011569;28;20220;-70
2022/04/25 10:59:48;;;;;;;0.10;0.10;;;;;;;;;;5011503;28;20215;-70
2022/04/25 11:02:23;;;;;;;0.10;0.10;;;;;;;;;;5011380;28;20263;-71
2022/04/25 11:05:05;;;;;;;0.10;0.10;;;;;;;;;;5009284;28;20210;-69
2022/04/25 11:07:33;;;;;;;0.10;0.10;;;8.70;99.90;;;;;;5018499;28;20290;-67
2022/04/25 11:10:00;;;;;;;0.10;0.10;;;;;;;;;;5016397;28;20215;-70
2022/04/25 11:12:43;;;;;;;0.10;0.10;;;;;;;;;;5010859;28;20448;-70
2022/04/25 11:15:11;;;;;;;0.10;0.10;;;;;;;;;;5013726;28;20231;-69
2022/04/25 11:17:39;;;;;;;0.10;0.10;;;;;;;;;;5011172;28;20201;-70
2022/04/25 11:20:06;;;;;;;0.10;0.10;;;;;;;;;;5008210;28;20209;-70
2022/04/25 11:22:50;;;;;;;0.10;0.10;;;;;;;;;;5012707;28;20375;-70
2022/04/25 11:25:36;;;;;;;0.00;0.00;;;;;;;;;;5009384;28;20554;-70
2022/04/25 11:28:04;;;;;;;0.10;0.10;;;;;;;;;;5013814;28;20227;-73
2022/04/25 11:30:33;;;;;;;0.10;0.10;;;;;;;;;;5012729;28;20224;-71
2022/04/25 11:33:04;;;;;;;0.10;0.10;;;;;;;;;;5006578;28;20270;-70
2022/04/25 11:35:31;;;;;;;0.10;0.10;;;;;;;;;;5005492;28;20228;-69
2022/04/25 11:37:59;;;;;;;0.10;0.10;;;;;;;;;;5012375;28;20201;-68
2022/04/25 11:40:27;;;;;;;0.10;0.10;;;;;;;;;;5007055;28;20633;-70
2022/04/25 11:42:56;;;;;;;0.10;0.10;;;;;;;;;;5013048;28;20637;-70
2022/04/25 11:45:23;;;;;;;0.10;0.10;;;;;;;;;;5012147;28;20674;-69
2022/04/25 11:47:52;;;;;;;0.10;0.10;;;;;;;;;;5008887;28;20211;-70
2022/04/25 11:50:21;;;;;;;0.10;0.10;;;;;;;;;;5012283;28;20307;-69
2022/04/25 11:52:48;;;;;;;0.10;0.10;;;;;;;;;;5007155;28;20243;-70
2022/04/25 11:55:17;;;;;;;0.10;0.10;;;;;;;;;;5011098;28;20669;-68
2022/04/25 11:57:45;;;;;;;0.10;0.10;;;;;;;;;;5006572;28;20244;-70
2022/04/25 12:00:15;;;;;;;0.10;0.10;;;;;;;;;;5013746;28;20204;-70
2022/04/25 12:02:42;;;;;;;0.10;0.10;;;;;;;;;;5012385;28;20243;-69
2022/04/25 12:05:12;;;;;;;0.07;0.07;;;;;;;;;;5010121;28;20228;-70
2022/04/25 12:15:33;;;;;;;0.10;0.10;;;;;;;;;;5009328;28;20240;-70
2022/04/25 12:15:59;;;;;;;0.10;0.10;;;;;;;;;;5008471;28;20231;-71
2022/04/25 12:18:27;;;;;;;0.10;0.10;;;;;;;;;;5010790;28;20662;-70
2022/04/25 12:21:01;;;;;;;0.00;0.00;;;;;;;;;;4998821;28;20197;-69
2022/04/25 12:23:30;;;;;;;0.10;0.10;;;;;;;;;;5004874;28;20212;-69
2022/04/25 12:25:58;;;;;;;0.10;0.10;;;;;;;;;;5002977;28;20231;-70
2022/04/25 12:28:27;;;;;;;0.10;0.10;;;;;;;;;;5004266;28;20204;-70
2022/04/25 12:30:57;;;;;;;0.10;0.10;;;;;;;;;;4998021;28;20292;-70
2022/04/25 12:33:25;;;;;;;0.10;0.10;;;;;;;;;;5005708;28;20204;-70
2022/04/25 12:36:07;;;;;;;0.10;0.10;;;;;;;;;;5005652;28;20308;-70
2022/04/25 12:38:41;;;;;;;0.10;0.10;;;;;;;;;;5005585;28;20292;-70
2022/04/25 12:41:09;;;;;;;0.10;0.10;;;;;;;;;;5013312;28;20212;-71
2022/04/25 12:43:37;;;;;;;0.10;0.10;;;;;;;;;;5009357;28;20211;-70
2022/04/25 12:46:06;;;;;;;0.10;0.10;;;12.60;99.90;;;;;;5026140;28;20224;-71
2022/04/25 12:48:49;;;;;;;0.10;0.10;;;;;;;;;;5005307;28;20200;-70
2022/04/25 12:51:26;;;;;;;0.10;0.10;;;;;;;;;;5004613;28;20212;-70
2022/04/25 12:53:54;;;;;;;0.10;0.10;;;14.90;99.90;;;;;;5001491;28;20200;-70
2022/04/25 12:56:24;;;;;;;0.10;0.10;;;14.70;99.90;;;;;;5007642;28;20214;-69
2022/04/25 12:58:51;;;;;;;0.10;0.10;;;14.60;99.90;;;;;;5003210;28;20669;-71
2022/04/25 13:01:27;;;;;;;0.10;0.10;;;14.50;99.90;;;;;;5007794;28;20662;-68
2022/04/25 13:04:08;;;;;;;0.10;0.10;;;14.60;99.90;;;;;;5003993;28;20208;-71
2022/04/25 13:06:37;;;;;;;0.10;0.10;;;14.50;99.90;;;;;;4997138;28;20226;-71
2022/04/25 13:09:06;;;;;;;0.10;0.10;;;14.50;99.90;;;;;;4997518;28;20205;-71
2022/04/25 13:11:33;;;;;;;0.10;0.10;;;14.40;99.90;;;;;;4998339;28;20196;-70
2022/04/25 13:14:01;;;;;;;0.10;0.10;;;;;;;;;;4994499;28;20201;-69
2022/04/25 13:16:29;;;;;;;0.00;0.00;;;14.30;99.90;;;;;;5012037;28;20297;-71
2022/04/25 13:18:57;;;;;;;0.00;0.00;;;14.30;99.90;;;;;;4996596;28;20341;-69
2022/04/25 13:21:25;;;;;;;0.10;0.10;;;14.20;99.90;;;;;;5001304;28;20204;-71
2022/04/25 13:23:52;;;;;;;0.10;0.10;;;14.00;99.90;;;;;;5000931;28;20205;-70
2022/04/25 13:26:22;;;;;;;0.10;0.10;;;13.80;99.90;;;;;;5008590;28;20247;-70
2022/04/25 13:28:49;;;;;;;0.10;0.10;;;13.70;99.90;;;;;;5012037;28;20235;-71
2022/04/25 13:31:16;;;;;;;0.10;0.10;;;13.70;99.90;;;;;;5005568;28;20220;-69
2022/04/25 13:33:43;;;;;;;0.00;0.00;;;13.60;99.90;;;;;;5008242;28;20196;-70
2022/04/25 13:36:11;;;;;;;0.00;0.00;;;13.60;99.90;;;;;;5000709;28;20244;-71
2022/04/25 13:38:38;;;;;;;0.10;0.10;;;13.60;99.90;;;;;;4999892;28;20210;-70
2022/04/25 13:41:05;;;;;;;0.00;0.00;;;13.70;99.90;;;;;;4995015;28;20233;-71
2022/04/25 13:43:33;;;;;;;0.00;0.00;;;13.70;99.90;;;;;;5002076;28;20236;-70
2022/04/25 13:46:01;;;;;;;0.10;0.10;;;13.70;99.90;;;;;;4993066;28;20244;-70
2022/04/25 13:48:29;;;;;;;0.10;0.10;;;13.70;99.90;;;;;;4992593;28;20201;-70
2022/04/25 13:50:56;;;;;;;0.10;0.10;;;13.80;99.90;;;;;;4994565;28;20201;-69
2022/04/25 13:53:23;;;;;;;0.10;0.10;;;13.80;99.90;;;;;;4995351;28;20203;-71
2022/04/25 13:55:51;;;;;;;0.00;0.00;;;14.00;99.90;;;;;;4990506;28;20232;-70
2022/04/25 13:58:18;;;;;;;0.10;0.10;;;14.00;99.90;;;;;;4997262;28;20193;-71
2022/04/25 14:00:46;;;;;;;0.00;0.00;;;14.10;99.90;;;;;;4993470;28;20204;-70
2022/04/25 14:03:13;;;;;;;0.10;0.10;;;14.10;99.90;;;;;;4999476;28;20270;-70
2022/04/25 14:05:43;;;;;;;0.10;0.10;;;14.20;99.90;;;;;;4996601;28;20769;-68
2022/04/25 14:08:11;;;;;;;0.00;0.00;;;14.20;99.90;;;;;;5001593;28;20197;-68
2022/04/25 14:10:41;;;;;;;0.00;0.00;;;14.20;99.90;;;;;;5004441;28;20204;-70
2022/04/25 14:13:11;;;;;;;0.10;0.10;;;14.30;99.90;;;;;;4996151;28;20220;-71
2022/04/25 14:15:39;;;;;;;0.10;0.10;;;14.30;99.90;;;;;;4992319;28;20228;-70
2022/04/25 14:18:09;;;;;;;0.00;0.00;;;14.30;99.90;;;;;;4996034;28;20209;-70
2022/04/25 14:20:36;;;;;;;0.10;0.10;;;14.30;99.90;;;;;;4991908;28;20208;-70
2022/04/25 14:23:05;;;;;;;0.00;0.00;;;14.30;99.90;;;;;;4992436;28;20303;-70
2022/04/25 14:25:32;;;;;;;0.10;0.10;;;14.40;99.90;;;;;;4995261;28;20231;-68
2022/04/25 14:28:01;;;;;;;0.00;0.00;;;14.40;99.90;;;;;;4989861;28;20213;-70
2022/04/25 14:30:28;;;;;;;0.10;0.10;;;14.50;99.90;;;;;;4996161;28;20280;-72
2022/04/25 14:32:56;;;;;;;0.10;0.10;;;14.50;99.90;;;;;;4992867;28;20201;-71
2022/04/25 14:35:25;;;;;;;0.10;0.10;;;14.50;99.90;;;;;;5002653;28;20196;-71
2022/04/25 14:37:53;;;;;;;0.10;0.10;;;14.60;99.90;;;;;;5000721;28;20285;-69
2022/04/25 14:40:20;;;;;;;0.03;0.03;;;14.50;99.90;;;;;;5000923;28;20212;-72
2022/04/25 14:42:48;;;;;;;0.00;0.00;;;14.50;99.90;;;;;;5000635;28;20229;-71
2022/04/25 14:45:15;;;;;;;0.10;0.10;;;14.50;99.90;;;;;;4995797;28;20205;-71
2022/04/25 14:47:46;;;;;;;0.00;0.00;;;14.50;99.90;;;;;;4996033;28;20276;-71
2022/04/25 14:55:52;;;;;;;0.00;0.00;;;14.50;99.90;;;;;;5008348;28;20223;-71
2022/04/25 14:58:20;;;;;;;0.10;0.10;;;14.40;99.90;;;;;;5004684;28;20201;-73
2022/04/25 15:00:46;;;;;;;0.10;0.10;;;14.40;99.90;;;;;;5010710;28;20247;-68
2022/04/25 15:03:16;;;;;;;0.10;0.10;;;14.40;99.90;;;;;;5016439;28;20224;-70
2022/04/25 15:05:44;;;;;;;0.00;0.00;;;14.30;99.90;;;;;;5010944;28;20733;-69
2022/04/25 15:08:14;;;;;;;0.00;0.00;;;14.30;99.90;;;;;;5008737;28;20280;-68
2022/04/25 15:10:42;;;;;;;0.10;0.10;;;14.40;99.90;;;;;;5014586;28;20236;-69